createdAt,value
2019-03-17T00:00:07.599Z,16.53
2019-03-17T00:02:42.892Z,16.33
2019-03-17T00:05:16.246Z,24.90
2019-03-17T00:07:47.863Z,20.57
2019-03-17T00:10:19.578Z,13.87
2019-03-17T00:12:51.526Z,17.17
2019-03-17T00:15:23.098Z,17.30
2019-03-17T00:17:55.827Z,12.77
2019-03-17T00:20:28.718Z,11.10
2019-03-17T00:23:02.548Z,13.63
2019-03-17T00:25:33.883Z,14.60
2019-03-17T00:28:05.392Z,13.27
2019-03-17T00:30:38.176Z,12.43
2019-03-17T00:33:10.587Z,12.97
2019-03-17T00:35:44.158Z,10.63
2019-03-17T00:38:17.294Z,10.53
2019-03-17T00:40:49.868Z,9.60
2019-03-17T00:43:21.427Z,12.43
2019-03-17T00:45:52.984Z,11.80
2019-03-17T00:48:24.450Z,10.27
2019-03-17T00:50:56.126Z,10.63
2019-03-17T00:53:28.345Z,6.37
2019-03-17T00:56:01.350Z,8.67
2019-03-17T00:58:33.334Z,10.60
2019-03-17T01:01:05.451Z,9.93
2019-03-17T01:03:38.758Z,10.33
2019-03-17T01:06:10.512Z,8.17
2019-03-17T01:08:43.806Z,12.43
2019-03-17T01:11:15.259Z,9.83
2019-03-17T01:13:46.871Z,9.53
2019-03-17T01:16:18.323Z,10.53
2019-03-17T01:18:51.302Z,6.63
2019-03-17T01:21:22.975Z,7.83
2019-03-17T01:23:54.422Z,9.90
2019-03-17T01:26:26.386Z,12.00
2019-03-17T01:28:58.355Z,9.57
2019-03-17T01:31:31.107Z,8.37
2019-03-17T01:34:02.930Z,9.37
2019-03-17T01:36:36.572Z,9.10
2019-03-17T01:39:09.315Z,6.47
2019-03-17T01:41:41.068Z,5.33
2019-03-17T01:44:14.769Z,6.57
2019-03-17T01:46:47.553Z,6.90
2019-03-17T01:49:19.128Z,7.03
2019-03-17T01:51:51.094Z,7.13
2019-03-17T01:54:23.759Z,6.37
2019-03-17T01:56:56.188Z,6.03
2019-03-17T01:59:28.266Z,7.17
2019-03-17T02:02:00.370Z,6.40
2019-03-17T02:04:33.413Z,8.03
2019-03-17T02:07:05.337Z,9.70
2019-03-17T02:09:37.545Z,7.43
2019-03-17T02:12:10.547Z,9.00
2019-03-17T02:14:43.134Z,7.30
2019-03-17T02:17:15.104Z,6.43
2019-03-17T02:19:46.542Z,8.27
2019-03-17T02:22:22.079Z,6.33
2019-03-17T02:24:52.377Z,7.80
2019-03-17T02:27:23.923Z,7.13
2019-03-17T02:29:55.357Z,7.67
2019-03-17T02:32:27.143Z,8.13
2019-03-17T02:34:59.365Z,7.73
2019-03-17T02:37:31.422Z,6.77
2019-03-17T02:40:04.459Z,7.60
2019-03-17T02:42:37.886Z,9.57
2019-03-17T02:45:10.808Z,9.90
2019-03-17T02:47:43.047Z,9.80
2019-03-17T02:50:16.784Z,10.63
2019-03-17T02:52:49.418Z,8.33
2019-03-17T02:55:21.268Z,7.83
2019-03-17T02:57:54.254Z,9.10
2019-03-17T03:00:26.502Z,10.90
2019-03-17T03:03:00.034Z,8.37
2019-03-17T03:05:31.489Z,11.83
2019-03-17T03:08:04.226Z,9.70
2019-03-17T03:10:35.852Z,8.97
2019-03-17T03:13:07.306Z,9.07
2019-03-17T03:15:39.935Z,10.30
2019-03-17T03:18:12.653Z,9.83
2019-03-17T03:20:45.853Z,12.83
2019-03-17T03:23:17.230Z,10.73
2019-03-17T03:25:48.728Z,10.73
2019-03-17T03:28:21.453Z,11.27
2019-03-17T03:30:53.860Z,11.70
2019-03-17T03:33:25.417Z,12.77
2019-03-17T03:36:09.928Z,13.77
2019-03-17T03:38:32.198Z,12.40
2019-03-17T03:41:05.372Z,13.97
2019-03-17T03:43:36.918Z,13.23
2019-03-17T03:46:09.945Z,14.10
2019-03-17T03:48:43.437Z,11.80
2019-03-17T03:51:14.824Z,14.23
2019-03-17T03:53:46.601Z,15.43
2019-03-17T03:56:18.397Z,13.47
2019-03-17T03:58:50.544Z,13.07
2019-03-17T04:01:22.022Z,15.37
2019-03-17T04:03:53.333Z,17.43
2019-03-17T04:06:27.267Z,14.73
2019-03-17T04:08:59.378Z,15.50
2019-03-17T04:11:32.107Z,13.73
2019-03-17T04:14:03.861Z,15.83
2019-03-17T04:16:35.178Z,14.30
2019-03-17T04:19:06.599Z,17.50
2019-03-17T04:21:38.679Z,16.30
2019-03-17T04:24:10.133Z,18.53
2019-03-17T04:26:42.068Z,17.30
2019-03-17T04:29:13.796Z,18.77
2019-03-17T04:31:46.439Z,20.90
2019-03-17T04:34:18.100Z,15.67
2019-03-17T04:36:50.613Z,18.47
2019-03-17T04:39:22.396Z,19.27
2019-03-17T04:41:54.399Z,18.10
2019-03-17T04:44:25.814Z,20.40
2019-03-17T04:46:57.285Z,18.93
2019-03-17T04:49:30.688Z,20.20
2019-03-17T04:52:02.609Z,18.20
2019-03-17T04:54:34.710Z,21.23
2019-03-17T04:57:06.106Z,21.57
2019-03-17T04:59:39.061Z,21.10
2019-03-17T05:02:13.639Z,19.33
2019-03-17T05:04:46.501Z,23.17
2019-03-17T05:07:18.362Z,21.37
2019-03-17T05:09:52.836Z,20.43
2019-03-17T05:12:26.425Z,20.57
2019-03-17T05:14:58.559Z,20.27
2019-03-17T05:17:30.394Z,21.27
2019-03-17T05:20:02.331Z,25.40
2019-03-17T05:22:35.575Z,22.57
2019-03-17T05:25:08.966Z,18.50
2019-03-17T05:27:40.443Z,23.03
2019-03-17T05:30:12.598Z,24.47
2019-03-17T05:32:45.101Z,20.60
2019-03-17T05:35:16.703Z,22.63
2019-03-17T05:37:49.572Z,23.63
2019-03-17T05:40:22.620Z,29.33
2019-03-17T05:42:55.136Z,22.73
2019-03-17T05:45:27.972Z,20.77
2019-03-17T05:47:59.575Z,27.63
2019-03-17T05:50:31.078Z,20.20
2019-03-17T05:53:02.547Z,24.00
2019-03-17T05:55:34.075Z,23.73
2019-03-17T05:58:07.076Z,23.80
2019-03-17T06:00:38.522Z,24.17
2019-03-17T06:03:10.457Z,20.43
2019-03-17T06:05:43.919Z,19.67
2019-03-17T06:08:16.317Z,21.90
2019-03-17T06:10:47.650Z,22.57
2019-03-17T06:13:19.932Z,20.37
2019-03-17T06:15:52.052Z,20.67
2019-03-17T06:18:24.594Z,20.30
2019-03-17T06:20:55.999Z,18.67
2019-03-17T06:23:27.482Z,18.60
2019-03-17T06:25:59.648Z,20.07
2019-03-17T06:28:31.046Z,19.07
2019-03-17T06:31:02.581Z,20.80
2019-03-17T06:33:35.219Z,18.80
2019-03-17T06:36:07.702Z,19.87
2019-03-17T06:38:39.853Z,31.87
2019-03-17T06:41:13.126Z,18.83
2019-03-17T06:43:45.492Z,19.67
2019-03-17T06:46:18.554Z,17.03
2019-03-17T06:48:52.128Z,15.27
2019-03-17T06:51:23.913Z,19.33
2019-03-17T06:53:56.877Z,17.37
2019-03-17T06:56:29.059Z,16.77
2019-03-17T06:59:00.816Z,17.97
2019-03-17T07:01:33.098Z,15.27
2019-03-17T07:04:06.121Z,14.80
2019-03-17T07:06:37.520Z,14.47
2019-03-17T07:09:08.882Z,15.53
2019-03-17T07:11:41.955Z,16.87
2019-03-17T07:14:13.539Z,15.53
2019-03-17T07:16:46.753Z,16.97
2019-03-17T07:19:18.332Z,13.43
2019-03-17T07:21:49.673Z,13.50
2019-03-17T07:24:21.040Z,15.00
2019-03-17T07:26:54.073Z,14.53
2019-03-17T07:29:27.325Z,15.17
2019-03-17T07:31:59.722Z,14.30
2019-03-17T07:34:31.603Z,11.90
2019-03-17T07:37:03.652Z,11.57
2019-03-17T07:39:35.074Z,16.07
2019-03-17T07:42:06.518Z,13.83
2019-03-17T07:44:37.817Z,12.67
2019-03-17T07:47:09.625Z,15.00
2019-03-17T07:49:42.717Z,10.83
2019-03-17T07:52:14.393Z,16.17
2019-03-17T07:54:46.259Z,13.17
2019-03-17T07:57:18.543Z,13.40
2019-03-17T07:59:50.396Z,15.93
2019-03-17T08:02:23.962Z,11.03
2019-03-17T08:04:56.284Z,11.93
2019-03-17T08:07:28.215Z,14.77
2019-03-17T08:10:01.416Z,12.37
2019-03-17T08:12:34.766Z,14.00
2019-03-17T08:15:07.113Z,8.47
2019-03-17T08:17:40.594Z,11.90
2019-03-17T08:20:14.561Z,11.80
2019-03-17T08:22:47.449Z,11.27
2019-03-17T08:25:19.232Z,9.23
2019-03-17T08:27:52.603Z,10.77
2019-03-17T08:30:24.193Z,9.20
2019-03-17T08:32:55.746Z,11.60
2019-03-17T08:35:28.739Z,12.47
2019-03-17T08:38:01.135Z,10.17
2019-03-17T08:40:32.830Z,17.00
2019-03-17T08:43:04.277Z,11.07
2019-03-17T08:45:35.582Z,8.80
2019-03-17T08:48:08.768Z,11.33
2019-03-17T08:50:41.488Z,11.23
2019-03-17T08:53:14.725Z,11.87
2019-03-17T08:55:47.750Z,10.67
2019-03-17T08:58:20.070Z,9.57
2019-03-17T09:00:52.760Z,10.43
2019-03-17T09:03:24.863Z,12.37
2019-03-17T09:05:57.642Z,10.93
2019-03-17T09:08:35.220Z,12.40
2019-03-17T09:11:04.530Z,11.03
2019-03-17T09:13:36.861Z,9.13
2019-03-17T09:16:09.992Z,8.33
2019-03-17T09:18:41.412Z,11.63
2019-03-17T09:21:14.235Z,12.67
2019-03-17T09:23:47.455Z,10.97
2019-03-17T09:26:19.224Z,10.20
2019-03-17T09:28:51.918Z,8.67
2019-03-17T09:31:23.295Z,8.67
2019-03-17T09:33:55.124Z,9.03
2019-03-17T09:36:26.921Z,8.43
2019-03-17T09:39:00.495Z,7.13
2019-03-17T09:41:35.126Z,8.47
2019-03-17T09:44:07.428Z,10.13
2019-03-17T09:46:40.359Z,9.80
2019-03-17T09:49:13.750Z,10.00
2019-03-17T09:51:46.745Z,8.40
2019-03-17T09:54:26.933Z,10.17
2019-03-17T09:57:00.286Z,8.60
2019-03-17T09:59:32.354Z,11.03
2019-03-17T10:02:05.361Z,11.43
2019-03-17T10:04:38.530Z,8.93
2019-03-17T10:07:10.571Z,10.10
2019-03-17T10:09:41.923Z,10.07
2019-03-17T10:12:14.980Z,7.80
2019-03-17T10:14:47.994Z,5.13
2019-03-17T10:17:19.591Z,10.57
2019-03-17T10:19:51.333Z,8.13
2019-03-17T10:22:23.920Z,8.37
2019-03-17T10:24:55.681Z,11.53
2019-03-17T10:27:27.431Z,7.03
2019-03-17T10:29:59.271Z,11.87
2019-03-17T10:32:31.473Z,5.10
2019-03-17T10:35:04.671Z,8.07
2019-03-17T10:37:36.043Z,7.77
2019-03-17T10:40:09.805Z,6.70
2019-03-17T10:42:41.852Z,12.30
2019-03-17T10:45:14.987Z,7.40
2019-03-17T10:47:47.166Z,8.63
2019-03-17T10:50:19.592Z,6.80
2019-03-17T10:52:51.261Z,6.57
2019-03-17T10:55:23.046Z,6.93
2019-03-17T10:57:56.516Z,10.33
2019-03-17T11:00:29.505Z,10.00
2019-03-17T11:03:02.904Z,9.83
2019-03-17T11:05:34.611Z,10.47
2019-03-17T11:08:07.726Z,8.17
2019-03-17T11:10:39.309Z,7.27
2019-03-17T11:13:10.921Z,6.37
2019-03-17T11:15:44.355Z,6.90
2019-03-17T11:18:15.759Z,6.37
2019-03-17T11:20:49.389Z,6.90
2019-03-17T11:23:22.421Z,7.00
2019-03-17T11:25:54.439Z,7.27
2019-03-17T11:28:26.031Z,6.73
2019-03-17T11:31:01.151Z,5.47
2019-03-17T11:33:32.560Z,7.17
2019-03-17T11:36:04.647Z,7.57
2019-03-17T11:38:37.704Z,6.63
2019-03-17T11:41:09.664Z,5.27
2019-03-17T11:43:42.782Z,10.27
2019-03-17T11:46:15.847Z,7.90
2019-03-17T11:48:48.145Z,6.47
2019-03-17T11:51:20.357Z,5.00
2019-03-17T11:53:52.255Z,5.63
2019-03-17T11:56:24.265Z,6.77
2019-03-17T11:58:55.641Z,7.50
2019-03-17T12:01:27.814Z,7.60
2019-03-17T12:04:01.339Z,6.70
2019-03-17T12:06:34.650Z,8.80
2019-03-17T12:09:08.482Z,5.77
2019-03-17T12:11:40.941Z,5.10
2019-03-17T12:14:12.458Z,6.30
2019-03-17T12:16:45.240Z,7.10
2019-03-17T12:19:18.783Z,7.50
2019-03-17T12:21:51.694Z,5.17
2019-03-17T12:24:24.107Z,5.93
2019-03-17T12:26:55.921Z,7.87
2019-03-17T12:29:28.441Z,6.77
2019-03-17T12:32:01.515Z,5.90
2019-03-17T12:34:33.562Z,7.63
2019-03-17T12:37:06.196Z,6.47
2019-03-17T12:39:40.373Z,8.67
2019-03-17T12:42:12.146Z,6.13
2019-03-17T12:44:43.528Z,6.63
2019-03-17T12:47:15.229Z,5.30
2019-03-17T12:49:47.106Z,4.37
2019-03-17T12:52:19.288Z,6.30
2019-03-17T12:54:50.739Z,5.53
2019-03-17T12:57:22.465Z,4.10
2019-03-17T12:59:56.138Z,6.93
2019-03-17T13:02:28.888Z,5.50
2019-03-17T13:05:01.231Z,6.43
2019-03-17T13:07:34.293Z,6.30
2019-03-17T13:10:15.631Z,5.73
2019-03-17T13:12:43.206Z,5.97
2019-03-17T13:15:14.658Z,6.73
2019-03-17T13:17:46.915Z,7.10
2019-03-17T13:20:20.006Z,7.23
2019-03-17T13:22:53.208Z,5.43
2019-03-17T13:25:26.080Z,6.43
2019-03-17T13:27:59.504Z,5.63
2019-03-17T13:30:32.278Z,6.23
2019-03-17T13:33:04.995Z,7.70
2019-03-17T13:35:37.492Z,6.37
2019-03-17T13:38:09.358Z,5.57
2019-03-17T13:40:43.956Z,5.97
2019-03-17T13:43:16.959Z,4.00
2019-03-17T13:45:49.253Z,5.77
2019-03-17T13:48:22.211Z,5.67
2019-03-17T13:50:55.261Z,6.83
2019-03-17T13:53:26.775Z,5.53
2019-03-17T13:56:00.451Z,5.57
2019-03-17T13:58:32.529Z,6.77
2019-03-17T14:01:03.999Z,7.80
2019-03-17T14:03:37.069Z,4.47
2019-03-17T14:06:08.606Z,6.30
2019-03-17T14:08:40.536Z,6.80
2019-03-17T14:11:12.257Z,4.67
2019-03-17T14:13:45.499Z,9.90
2019-03-17T14:16:16.819Z,4.97
2019-03-17T14:18:49.037Z,10.60
2019-03-17T14:21:20.974Z,6.20
2019-03-17T14:23:53.352Z,3.67
2019-03-17T14:26:25.222Z,6.60
2019-03-17T14:28:57.481Z,5.30
2019-03-17T14:31:30.299Z,4.03
2019-03-17T14:34:02.865Z,6.70
2019-03-17T14:36:34.369Z,6.27
2019-03-17T14:39:07.943Z,8.23
2019-03-17T14:41:40.179Z,8.03
2019-03-17T14:44:12.076Z,7.80
2019-03-17T14:46:45.590Z,8.40
2019-03-17T14:49:17.994Z,6.83
2019-03-17T14:51:50.123Z,8.30
2019-03-17T14:54:22.224Z,5.40
2019-03-17T14:56:54.277Z,7.13
2019-03-17T14:59:27.341Z,6.70
2019-03-17T15:02:00.630Z,9.70
2019-03-17T15:04:33.763Z,6.70
2019-03-17T15:07:05.387Z,6.27
2019-03-17T15:09:38.402Z,5.40
2019-03-17T15:12:13.391Z,7.70
2019-03-17T15:14:46.576Z,5.70
2019-03-17T15:17:18.758Z,9.37
2019-03-17T15:19:51.979Z,10.17
2019-03-17T15:22:24.074Z,7.77
2019-03-17T15:24:56.202Z,8.00
2019-03-17T15:27:29.941Z,8.93
2019-03-17T15:30:02.233Z,10.17
2019-03-17T15:32:35.692Z,9.73
2019-03-17T15:35:09.987Z,7.03
2019-03-17T15:37:43.749Z,5.73
2019-03-17T15:40:15.770Z,6.70
2019-03-17T15:42:47.857Z,9.00
2019-03-17T15:45:19.809Z,6.53
2019-03-17T15:47:53.382Z,4.60
2019-03-17T15:50:24.873Z,7.57
2019-03-17T15:52:57.215Z,7.63
2019-03-17T15:55:31.319Z,6.53
2019-03-17T15:58:05.242Z,6.43
2019-03-17T16:00:37.408Z,5.47
2019-03-17T16:03:10.458Z,6.83
2019-03-17T16:05:43.902Z,9.67
2019-03-17T16:08:16.954Z,7.23
2019-03-17T16:10:49.781Z,5.17
2019-03-17T16:13:22.210Z,5.07
2019-03-17T16:15:55.311Z,6.23
2019-03-17T16:18:28.643Z,9.37
2019-03-17T16:21:02.627Z,6.47
2019-03-17T16:23:35.871Z,5.10
2019-03-17T16:26:08.861Z,7.00
2019-03-17T16:28:41.872Z,10.47
2019-03-17T16:31:14.347Z,7.60
2019-03-17T16:33:47.369Z,6.93
2019-03-17T16:36:21.229Z,3.37
2019-03-17T16:38:54.297Z,3.67
2019-03-17T16:41:27.385Z,3.13
2019-03-17T16:44:00.496Z,3.50
2019-03-17T16:46:33.295Z,2.70
2019-03-17T16:49:05.827Z,5.10
2019-03-17T16:51:38.913Z,3.40
2019-03-17T16:54:10.896Z,3.87
2019-03-17T16:56:42.677Z,5.10
2019-03-17T16:59:14.200Z,4.57
2019-03-17T17:01:47.205Z,5.87
2019-03-17T17:04:20.201Z,3.73
2019-03-17T17:06:51.984Z,3.83
2019-03-17T17:09:24.122Z,5.43
2019-03-17T17:11:57.538Z,7.57
2019-03-17T17:14:30.828Z,6.87
2019-03-17T17:17:03.331Z,10.50
2019-03-17T17:19:36.318Z,6.20
2019-03-17T17:22:08.436Z,34.30
2019-03-17T17:24:42.907Z,27.20
2019-03-17T17:27:16.372Z,12.57
2019-03-17T17:29:48.280Z,7.27
2019-03-17T17:32:20.087Z,11.47
2019-03-17T17:34:53.594Z,7.37
2019-03-17T17:37:25.484Z,4.70
2019-03-17T17:39:57.228Z,7.27
2019-03-17T17:42:30.040Z,8.07
2019-03-17T17:45:03.000Z,8.33
2019-03-17T17:47:35.264Z,7.00
2019-03-17T17:50:09.481Z,7.93
2019-03-17T17:52:42.630Z,5.70
2019-03-17T17:55:15.654Z,8.93
2019-03-17T17:57:48.547Z,8.07
2019-03-17T18:00:22.134Z,5.87
2019-03-17T18:02:55.030Z,5.93
2019-03-17T18:05:28.834Z,8.73
2019-03-17T18:08:02.075Z,5.20
2019-03-17T18:10:35.172Z,4.13
2019-03-17T18:13:08.811Z,5.30
2019-03-17T18:15:41.843Z,4.53
2019-03-17T18:18:14.781Z,3.73
2019-03-17T18:20:47.761Z,2.50
2019-03-17T18:23:19.206Z,4.70
2019-03-17T18:25:52.611Z,6.13
2019-03-17T18:28:24.688Z,5.10
2019-03-17T18:30:57.667Z,5.37
2019-03-17T18:33:29.801Z,5.60
2019-03-17T18:36:03.249Z,5.43
2019-03-17T18:38:36.600Z,5.70
2019-03-17T18:41:09.350Z,5.10
2019-03-17T18:43:41.413Z,6.73
2019-03-17T18:46:14.886Z,8.50
2019-03-17T18:48:47.916Z,8.07
2019-03-17T18:51:21.086Z,7.70
2019-03-17T18:53:54.507Z,6.93
2019-03-17T18:56:25.891Z,6.37
2019-03-17T18:58:57.501Z,7.17
2019-03-17T19:01:29.958Z,8.20
2019-03-17T19:04:02.698Z,8.47
2019-03-17T19:06:34.164Z,7.53
2019-03-17T19:09:08.065Z,7.83
2019-03-17T19:11:39.347Z,5.20
2019-03-17T19:14:12.418Z,7.50
2019-03-17T19:16:46.433Z,8.73
2019-03-17T19:19:18.219Z,6.10
2019-03-17T19:21:49.598Z,8.43
2019-03-17T19:24:22.638Z,7.77
2019-03-17T19:26:55.985Z,7.63
2019-03-17T19:29:29.083Z,7.17
2019-03-17T19:32:02.356Z,7.07
2019-03-17T19:34:35.505Z,10.03
2019-03-17T19:37:06.990Z,6.10
2019-03-17T19:39:40.040Z,7.07
2019-03-17T19:42:12.723Z,6.77
2019-03-17T19:44:45.962Z,14.30
2019-03-17T19:47:17.979Z,10.97
2019-03-17T19:49:49.341Z,10.70
2019-03-17T19:52:21.770Z,7.63
2019-03-17T19:54:53.720Z,8.30
2019-03-17T19:57:25.506Z,7.03
2019-03-17T19:59:57.096Z,8.10
2019-03-17T20:02:30.306Z,8.33
2019-03-17T20:05:03.313Z,9.80
2019-03-17T20:07:34.648Z,8.00
2019-03-17T20:10:09.881Z,10.03
2019-03-17T20:12:41.822Z,9.20
2019-03-17T20:15:14.759Z,9.80
2019-03-17T20:17:47.971Z,10.20
2019-03-17T20:20:20.040Z,8.57
2019-03-17T20:22:53.295Z,11.93
2019-03-17T20:25:26.386Z,6.50
2019-03-17T20:27:59.688Z,7.17
2019-03-17T20:30:31.469Z,10.83
2019-03-17T20:33:05.002Z,7.53
2019-03-17T20:35:38.044Z,6.83
2019-03-17T20:38:09.559Z,8.20
2019-03-17T20:40:43.201Z,9.00
2019-03-17T20:43:29.079Z,7.83
2019-03-17T20:45:49.619Z,7.93
2019-03-17T20:48:22.686Z,6.23
2019-03-17T20:50:59.136Z,8.10
2019-03-17T20:53:31.641Z,9.13
2019-03-17T20:56:03.300Z,7.67
2019-03-17T20:58:35.480Z,8.17
2019-03-17T21:01:07.300Z,6.03
2019-03-17T21:03:40.503Z,6.10
2019-03-17T21:06:12.511Z,6.57
2019-03-17T21:08:45.846Z,6.37
2019-03-17T21:11:17.419Z,5.93
2019-03-17T21:13:50.416Z,8.57
2019-03-17T21:16:23.412Z,6.30
2019-03-17T21:18:55.845Z,5.33
2019-03-17T21:21:27.293Z,8.97
2019-03-17T21:24:00.488Z,5.73
2019-03-17T21:26:33.812Z,6.60
2019-03-17T21:29:06.785Z,7.03
2019-03-17T21:31:39.887Z,8.63
2019-03-17T21:34:11.358Z,6.00
2019-03-17T21:36:44.125Z,6.13
2019-03-17T21:39:18.787Z,6.67
2019-03-17T21:41:50.137Z,7.23
2019-03-17T21:44:23.279Z,6.00
2019-03-17T21:46:57.307Z,9.77
2019-03-17T21:49:30.570Z,10.10
2019-03-17T21:52:03.668Z,5.70
2019-03-17T21:54:36.710Z,6.50
2019-03-17T21:57:08.081Z,6.10
2019-03-17T21:59:39.658Z,7.90
2019-03-17T22:02:13.040Z,7.27
2019-03-17T22:04:45.507Z,6.87
2019-03-17T22:07:19.659Z,7.93
2019-03-17T22:09:53.286Z,7.07
2019-03-17T22:12:25.190Z,7.43
2019-03-17T22:14:57.851Z,8.80
2019-03-17T22:17:31.061Z,9.83
2019-03-17T22:20:02.763Z,5.87
2019-03-17T22:22:35.752Z,9.20
2019-03-17T22:25:09.304Z,6.33
2019-03-17T22:27:42.664Z,8.47
2019-03-17T22:30:14.287Z,9.20
2019-03-17T22:32:47.294Z,7.50
2019-03-17T22:35:20.995Z,7.23
2019-03-17T22:37:53.926Z,9.27
2019-03-17T22:40:27.821Z,7.63
2019-03-17T22:43:01.528Z,9.43
2019-03-17T22:45:34.687Z,7.63
2019-03-17T22:48:07.648Z,9.53
2019-03-17T22:50:46.072Z,10.20
2019-03-17T22:53:19.211Z,7.77
2019-03-17T22:56:00.457Z,7.83
2019-03-17T22:58:32.579Z,5.27
2019-03-17T23:01:06.432Z,8.43
2019-03-17T23:03:38.239Z,6.97
2019-03-17T23:06:10.528Z,9.67
2019-03-17T23:08:43.062Z,7.33
2019-03-17T23:11:15.334Z,8.20
2019-03-17T23:13:49.285Z,5.00
2019-03-17T23:16:22.459Z,9.77
2019-03-17T23:18:56.195Z,7.63
2019-03-17T23:21:28.940Z,6.97
2019-03-17T23:24:02.056Z,8.83
2019-03-17T23:26:35.306Z,5.90
2019-03-17T23:29:08.550Z,7.50
2019-03-17T23:31:40.726Z,7.60
2019-03-17T23:34:13.988Z,8.33
2019-03-17T23:36:45.856Z,9.47
2019-03-17T23:39:19.117Z,5.23
2019-03-17T23:41:52.413Z,9.50
2019-03-17T23:44:24.325Z,14.17
2019-03-17T23:46:56.077Z,8.37
2019-03-17T23:49:29.983Z,6.90
2019-03-17T23:52:03.761Z,6.93
2019-03-17T23:54:37.079Z,7.40
2019-03-17T23:57:10.335Z,5.33
2019-03-17T23:59:44.385Z,6.43
